Time;durP1;ratioP1;P1;durP2;ratioP2;P2;SDS_P1;SDS_P2;PMS_P1;PMS_P2;Temp;Humidity;BMP_temperature;BMP_pressure;BME280_temperature;BME280_humidity;BME280_pressure;Samples;Min_cycle;Max_cycle;Signal;HPM_P1;HPM_P2
2020/12/10 00:02:34;;;;;;;3.10;1.23;;;10.60;99.90;;;;;;7730614;28;20143;-77
2020/12/10 00:06:19;;;;;;;2.80;0.90;;;10.60;99.90;;;;;;7740937;28;20139;-76
2020/12/10 00:10:03;;;;;;;2.57;1.27;;;10.70;99.90;;;;;;7749194;28;20059;-76
2020/12/10 00:13:46;;;;;;;2.47;0.80;;;10.70;99.90;;;;;;7730810;28;20064;-79
2020/12/10 00:17:29;;;;;;;2.93;1.00;;;10.70;99.90;;;;;;7715049;28;20147;-77
2020/12/10 00:21:10;;;;;;;3.77;1.10;;;10.70;99.90;;;;;;7729894;28;20396;-77
2020/12/10 00:24:52;;;;;;;3.07;1.07;;;10.70;99.90;;;;;;7729877;28;20068;-80
2020/12/10 00:28:34;;;;;;;2.33;0.93;;;10.70;99.90;;;;;;7707323;28;20095;-79
2020/12/10 00:32:16;;;;;;;3.33;0.90;;;10.70;99.90;;;;;;7717599;28;20544;-77
2020/12/10 00:35:58;;;;;;;1.70;0.90;;;10.70;99.90;;;;;;7706664;28;20067;-77
2020/12/10 00:39:40;;;;;;;2.43;0.90;;;10.70;99.90;;;;;;7739671;28;20228;-76
2020/12/10 00:43:22;;;;;;;2.33;0.80;;;10.70;99.90;;;;;;7734909;28;20114;-77
2020/12/10 00:47:03;;;;;;;1.90;1.00;;;10.70;99.90;;;;;;7721274;28;20139;-76
2020/12/10 00:50:45;;;;;;;5.73;1.40;;;10.70;99.90;;;;;;7722035;28;20078;-78
2020/12/10 00:54:26;;;;;;;2.73;0.90;;;10.60;99.90;;;;;;7721593;28;20109;-77
2020/12/10 00:58:07;;;;;;;2.97;0.90;;;10.60;99.90;;;;;;7704434;28;20136;-78
2020/12/10 01:01:49;;;;;;;2.63;0.80;;;10.60;99.90;;;;;;7717929;28;20088;-77
2020/12/10 01:05:30;;;;;;;2.87;1.03;;;10.60;99.90;;;;;;7744677;28;20093;-76
2020/12/10 01:09:12;;;;;;;3.03;1.13;;;10.60;99.90;;;;;;7724389;28;20062;-77
2020/12/10 01:12:53;;;;;;;5.07;1.10;;;10.60;99.90;;;;;;7729590;28;20746;-78
2020/12/10 01:16:35;;;;;;;1.27;0.70;;;10.60;99.90;;;;;;7707808;28;20162;-77
2020/12/10 01:20:17;;;;;;;1.73;0.83;;;10.60;99.90;;;;;;7712201;28;20400;-76
2020/12/10 01:24:00;;;;;;;2.97;1.17;;;10.60;99.90;;;;;;7734057;28;20135;-77
2020/12/10 01:27:41;;;;;;;3.03;1.07;;;10.60;99.90;;;;;;7713457;28;20151;-77
2020/12/10 01:31:23;;;;;;;1.23;0.70;;;10.60;99.90;;;;;;7721479;28;20143;-77
2020/12/10 01:35:09;;;;;;;1.37;1.00;;;10.60;99.90;;;;;;7734134;28;20055;-76
2020/12/10 01:38:51;;;;;;;2.17;0.97;;;10.60;99.90;;;;;;7724094;28;20130;-78
2020/12/10 01:42:35;;;;;;;5.00;1.40;;;10.60;99.90;;;;;;7733836;28;20087;-76
2020/12/10 01:46:17;;;;;;;1.30;0.70;;;10.60;99.90;;;;;;7717473;28;20127;-76
2020/12/10 01:49:59;;;;;;;1.67;0.80;;;10.60;99.90;;;;;;7716079;28;20094;-77
2020/12/10 01:53:40;;;;;;;1.47;0.87;;;10.60;99.90;;;;;;7732909;28;20118;-77
2020/12/10 01:57:22;;;;;;;2.17;0.80;;;10.60;99.90;;;;;;7719521;28;20101;-77
2020/12/10 02:01:03;;;;;;;1.03;0.70;;;10.60;99.90;;;;;;7724062;28;20083;-77
2020/12/10 02:04:44;;;;;;;1.00;0.77;;;10.60;99.90;;;;;;7726028;28;20685;-76
2020/12/10 02:08:26;;;;;;;3.10;1.00;;;10.60;99.90;;;;;;7704061;28;20084;-77
2020/12/10 02:12:07;;;;;;;2.97;1.20;;;10.70;99.90;;;;;;7706883;28;20092;-76
2020/12/10 02:15:50;;;;;;;2.73;0.90;;;10.70;99.90;;;;;;7721574;28;20088;-76
2020/12/10 02:19:32;;;;;;;1.00;0.70;;;10.80;99.90;;;;;;7732502;28;20155;-76
2020/12/10 02:23:13;;;;;;;5.83;1.30;;;10.80;99.90;;;;;;7731434;28;20064;-77
2020/12/10 02:26:55;;;;;;;2.50;0.87;;;10.80;99.90;;;;;;7732338;28;20131;-77
2020/12/10 02:30:37;;;;;;;0.80;0.60;;;10.80;99.90;;;;;;7734175;28;20068;-77
2020/12/10 02:34:18;;;;;;;3.03;0.90;;;10.80;99.90;;;;;;7669962;28;20064;-77
2020/12/10 02:38:03;;;;;;;2.10;0.93;;;10.80;99.90;;;;;;7669963;28;20135;-78
2020/12/10 02:41:47;;;;;;;1.73;0.83;;;10.80;99.90;;;;;;7642121;28;20088;-76
2020/12/10 02:45:28;;;;;;;1.10;0.60;;;10.80;99.90;;;;;;7654849;28;20533;-76
2020/12/10 02:49:10;;;;;;;1.30;0.60;;;10.80;99.90;;;;;;7651229;28;20061;-76
2020/12/10 02:52:52;;;;;;;1.40;0.70;;;10.80;99.90;;;;;;7661110;28;20132;-77
2020/12/10 02:56:33;;;;;;;3.90;0.80;;;10.80;99.90;;;;;;7668953;28;20370;-77
2020/12/10 03:00:15;;;;;;;1.20;0.60;;;10.80;99.90;;;;;;7662707;28;20129;-77
2020/12/10 03:03:56;;;;;;;2.10;0.90;;;10.80;99.90;;;;;;7653643;28;20104;-77
2020/12/10 03:07:37;;;;;;;5.40;0.87;;;10.80;99.90;;;;;;7669651;28;20143;-77
2020/12/10 03:11:19;;;;;;;0.57;0.50;;;10.80;99.90;;;;;;7668906;28;20056;-77
2020/12/10 03:15:00;;;;;;;3.20;0.70;;;10.80;99.90;;;;;;7649510;28;20057;-76
2020/12/10 03:18:42;;;;;;;2.67;1.40;;;10.80;99.90;;;;;;7669551;28;20132;-77
2020/12/10 03:22:23;;;;;;;1.10;0.70;;;10.80;99.90;;;;;;7669829;28;20132;-76
2020/12/10 03:26:04;;;;;;;2.27;0.80;;;10.80;99.90;;;;;;7655922;28;20456;-76
2020/12/10 03:29:46;;;;;;;4.53;1.00;;;10.80;99.90;;;;;;7650411;28;20097;-76
2020/12/10 03:33:27;;;;;;;2.30;0.90;;;10.90;99.90;;;;;;7705936;28;20417;-76
2020/12/10 03:37:09;;;;;;;1.63;0.80;;;10.90;99.90;;;;;;7729987;28;20052;-76
2020/12/10 03:40:51;;;;;;;2.23;1.10;;;10.90;99.90;;;;;;7716844;28;20095;-76
2020/12/10 03:44:32;;;;;;;1.57;0.80;;;10.90;99.90;;;;;;7720484;28;20410;-77
2020/12/10 03:48:13;;;;;;;3.10;1.00;;;10.90;99.90;;;;;;7706384;28;20057;-77
2020/12/10 03:51:55;;;;;;;2.90;0.90;;;10.90;99.90;;;;;;7734891;28;20465;-75
2020/12/10 03:55:36;;;;;;;1.57;0.83;;;10.90;99.90;;;;;;7728630;28;20147;-75
2020/12/10 03:59:18;;;;;;;1.10;0.80;;;10.90;99.90;;;;;;7734698;28;20264;-76
2020/12/10 04:02:59;;;;;;;1.27;0.60;;;10.90;99.90;;;;;;7731935;28;20115;-76
2020/12/10 04:06:43;;;;;;;0.70;0.60;;;11.00;99.90;;;;;;7706082;28;20189;-76
2020/12/10 04:10:24;;;;;;;1.80;0.70;;;11.00;99.90;;;;;;7699761;28;20450;-76
2020/12/10 04:14:07;;;;;;;4.23;1.00;;;11.00;99.90;;;;;;7721142;28;20499;-76
2020/12/10 04:17:49;;;;;;;1.13;0.70;;;11.00;99.90;;;;;;7726382;28;20095;-76
2020/12/10 04:21:31;;;;;;;1.57;0.70;;;11.00;99.90;;;;;;7730087;28;20371;-76
2020/12/10 04:25:12;;;;;;;2.87;0.80;;;11.10;99.90;;;;;;7729600;28;20074;-78
2020/12/10 04:28:54;;;;;;;1.63;0.83;;;11.10;99.90;;;;;;7728344;28;20055;-75
2020/12/10 04:32:36;;;;;;;1.73;0.90;;;11.10;99.90;;;;;;7729662;28;20091;-77
2020/12/10 04:36:18;;;;;;;1.80;0.80;;;11.10;99.90;;;;;;7729581;28;20056;-76
2020/12/10 04:39:59;;;;;;;2.00;0.70;;;11.10;99.90;;;;;;7719248;28;20127;-76
2020/12/10 04:43:40;;;;;;;2.93;0.90;;;11.20;99.90;;;;;;7699443;28;20323;-76
2020/12/10 04:47:23;;;;;;;0.80;0.60;;;11.20;99.90;;;;;;7716794;28;20504;-76
2020/12/10 04:51:07;;;;;;;1.20;0.80;;;11.70;99.90;;;;;;7717150;28;20072;-78
2020/12/10 04:54:49;;;;;;;1.43;0.77;;;11.20;99.90;;;;;;7712989;28;20055;-78
2020/12/10 04:58:31;;;;;;;1.40;0.80;;;11.20;99.90;;;;;;7733848;28;20052;-77
2020/12/10 05:02:13;;;;;;;0.80;0.60;;;11.20;99.90;;;;;;7705160;28;20095;-77
2020/12/10 05:06:11;;;;;;;0.73;0.50;;;11.20;99.90;;;;;;7715640;28;20452;-78
2020/12/10 05:09:57;;;;;;;0.67;0.50;;;11.30;99.90;;;;;;7722000;28;20542;-78
2020/12/10 05:13:39;;;;;;;1.30;0.60;;;11.20;99.90;;;;;;7723474;28;20092;-76
2020/12/10 05:17:20;;;;;;;0.67;0.50;;;11.20;99.90;;;;;;7734374;28;20530;-76
2020/12/10 05:21:02;;;;;;;0.57;0.47;;;11.20;99.90;;;;;;7723364;28;20131;-75
2020/12/10 05:24:43;;;;;;;2.67;0.70;;;11.20;99.90;;;;;;7734151;28;20140;-75
2020/12/10 05:28:25;;;;;;;0.83;0.50;;;11.20;99.90;;;;;;7734029;28;20055;-75
2020/12/10 05:32:09;;;;;;;1.03;0.73;;;11.20;99.90;;;;;;7726583;28;20064;-76
2020/12/10 05:36:10;;;;;;;0.50;0.50;;;11.20;99.90;;;;;;7729612;28;20390;-77
2020/12/10 05:39:58;;;;;;;1.53;0.50;;;11.20;99.90;;;;;;7703737;28;20193;-77
2020/12/10 05:43:39;;;;;;;0.73;0.53;;;11.20;99.90;;;;;;7704670;28;20094;-77
2020/12/10 05:47:28;;;;;;;0.50;0.50;;;11.20;99.90;;;;;;7720559;28;20409;-78
2020/12/10 05:51:15;;;;;;;0.50;0.50;;;11.20;99.90;;;;;;7731660;28;20060;-74
2020/12/10 05:54:57;;;;;;;0.47;0.47;;;11.20;99.90;;;;;;7733206;28;20135;-78
2020/12/10 05:58:51;;;;;;;0.70;0.60;;;11.20;99.90;;;;;;7731089;28;20139;-77
2020/12/10 06:02:36;;;;;;;0.50;0.50;;;11.30;99.90;;;;;;7703060;28;20064;-77
2020/12/10 06:06:20;;;;;;;0.53;0.47;;;11.30;99.90;;;;;;7702786;28;20056;-79
2020/12/10 06:10:02;;;;;;;0.50;0.50;;;11.30;99.90;;;;;;7719756;28;20460;-76
2020/12/10 06:13:44;;;;;;;0.50;0.50;;;11.40;99.90;;;;;;7721339;28;20139;-77
2020/12/10 06:17:26;;;;;;;0.43;0.43;;;11.40;99.90;;;;;;7718870;28;20127;-78
2020/12/10 06:21:38;;;;;;;0.43;0.43;;;11.40;99.90;;;;;;7712904;28;20072;-78
2020/12/10 06:25:29;;;;;;;0.47;0.47;;;11.50;99.90;;;;;;7733675;28;20058;-79
2020/12/10 06:29:32;;;;;;;0.50;0.50;;;11.50;99.90;;;;;;7758697;28;20130;-79
2020/12/10 06:33:37;;;;;;;1.00;0.60;;;11.50;99.90;;;;;;7725150;28;20091;-77
2020/12/10 06:37:23;;;;;;;1.03;0.60;;;11.50;99.90;;;;;;7735672;28;20485;-80
2020/12/10 06:41:04;;;;;;;;;;;11.50;99.90;;;;;;7726032;28;20353;-76
2020/12/10 06:44:47;;;;;;;0.80;0.60;;;11.40;99.90;;;;;;7724402;28;20003;-76
2020/12/10 06:48:44;;;;;;;1.17;0.60;;;11.40;99.90;;;;;;7728880;28;20143;-77
2020/12/10 06:52:26;;;;;;;0.50;0.50;;;11.50;99.90;;;;;;7731994;28;20134;-79
2020/12/10 06:56:11;;;;;;;1.00;0.60;;;11.50;99.90;;;;;;7732578;28;20062;-79
2020/12/10 06:59:53;;;;;;;0.53;0.40;;;11.50;99.90;;;;;;7732253;28;20135;-78
2020/12/10 07:03:35;;;;;;;0.40;0.40;;;11.50;99.90;;;;;;7731417;28;20496;-79
2020/12/10 07:07:21;;;;;;;0.30;0.30;;;11.50;99.90;;;;;;7714591;28;20120;-79
2020/12/10 07:11:03;;;;;;;;;;;11.50;99.90;;;;;;7709045;28;20095;-77
2020/12/10 07:14:44;;;;;;;0.40;0.40;;;11.50;99.90;;;;;;7720716;28;19980;-78
2020/12/10 07:18:26;;;;;;;0.50;0.50;;;11.50;99.90;;;;;;7721813;28;20135;-78
2020/12/10 07:22:07;;;;;;;0.30;0.30;;;11.50;99.90;;;;;;7714504;28;20130;-78
2020/12/10 07:25:49;;;;;;;0.70;0.50;;;11.60;99.90;;;;;;7734015;28;20095;-78
2020/12/10 07:29:30;;;;;;;0.50;0.50;;;11.50;99.90;;;;;;7732007;28;20154;-78
2020/12/10 07:33:19;;;;;;;0.50;0.40;;;11.60;99.90;;;;;;7731682;28;20177;-81
2020/12/10 07:37:00;;;;;;;0.50;0.50;;;11.60;99.90;;;;;;7730842;28;20070;-78
2020/12/10 07:40:43;;;;;;;0.40;0.40;;;11.60;99.90;;;;;;7730328;28;20437;-79
2020/12/10 07:44:33;;;;;;;0.50;0.50;;;11.50;99.90;;;;;;7730951;28;20142;-78
2020/12/10 07:48:17;;;;;;;0.50;0.50;;;11.60;99.90;;;;;;7734828;28;20138;-78
2020/12/10 07:52:07;;;;;;;0.40;0.40;;;11.60;99.90;;;;;;7731414;28;20099;-77
2020/12/10 07:55:59;;;;;;;0.77;0.40;;;11.60;99.90;;;;;;7728337;28;20468;-79
2020/12/10 07:59:43;;;;;;;0.87;0.50;;;11.60;99.90;;;;;;7726196;28;20138;-82
2020/12/10 08:03:27;;;;;;;0.53;0.50;;;11.60;99.90;;;;;;7728155;28;20142;-82
2020/12/10 08:07:13;;;;;;;1.00;0.60;;;11.60;99.90;;;;;;7727136;28;20537;-76
2020/12/10 08:11:08;;;;;;;1.23;0.50;;;11.70;99.90;;;;;;7726764;28;20175;-77
2020/12/10 08:14:52;;;;;;;1.17;0.60;;;11.70;99.90;;;;;;7727016;28;20100;-77
2020/12/10 08:18:33;;;;;;;1.27;0.70;;;11.70;99.90;;;;;;7726437;28;20131;-75
2020/12/10 08:22:16;;;;;;;0.50;0.50;;;11.70;99.90;;;;;;7727324;28;20085;-75
2020/12/10 08:26:09;;;;;;;0.73;0.50;;;11.70;99.90;;;;;;7729971;28;20071;-77
2020/12/10 08:30:03;;;;;;;0.40;0.40;;;11.80;99.90;;;;;;7730565;28;20087;-77
2020/12/10 08:33:44;;;;;;;0.60;0.40;;;11.80;99.90;;;;;;7735422;28;20067;-76
2020/12/10 08:37:26;;;;;;;0.93;0.60;;;11.80;99.90;;;;;;7722129;28;20131;-77
2020/12/10 08:41:07;;;;;;;0.40;0.40;;;11.80;99.90;;;;;;7705017;28;20147;-76
2020/12/10 08:44:51;;;;;;;1.20;0.70;;;11.80;99.90;;;;;;7709992;28;20063;-76
2020/12/10 08:48:48;;;;;;;1.57;0.80;;;11.80;99.90;;;;;;7718233;28;20743;-77
2020/12/10 08:52:30;;;;;;;0.63;0.50;;;11.80;99.90;;;;;;7732497;28;20143;-79
2020/12/10 08:56:19;;;;;;;1.00;0.70;;;11.90;99.90;;;;;;7732821;28;20048;-76
2020/12/10 09:00:00;;;;;;;1.23;0.77;;;11.90;99.90;;;;;;7733877;28;20095;-76
2020/12/10 09:03:42;;;;;;;1.83;0.80;;;11.90;99.90;;;;;;7734100;28;20468;-75
2020/12/10 09:07:25;;;;;;;1.33;0.80;;;11.80;99.90;;;;;;7734628;28;20063;-75
2020/12/10 09:11:07;;;;;;;1.23;0.70;;;11.80;99.90;;;;;;7734677;28;20099;-77
2020/12/10 09:14:49;;;;;;;1.00;0.70;;;11.90;99.90;;;;;;7720629;28;20060;-75
2020/12/10 09:18:31;;;;;;;2.10;1.00;;;11.90;99.90;;;;;;7718979;28;20052;-75
2020/12/10 09:22:13;;;;;;;1.70;0.70;;;11.90;99.90;;;;;;7729829;28;20142;-75
2020/12/10 09:25:54;;;;;;;1.40;0.70;;;11.90;99.90;;;;;;7734292;28;20059;-75
2020/12/10 09:29:37;;;;;;;2.33;1.00;;;11.90;99.90;;;;;;7734593;28;20091;-75
2020/12/10 09:33:18;;;;;;;2.80;1.43;;;11.90;99.90;;;;;;7734650;28;20064;-77
2020/12/10 09:37:00;;;;;;;6.30;1.57;;;11.80;99.90;;;;;;7733802;28;20140;-77
2020/12/10 09:40:41;;;;;;;5.20;1.37;;;11.70;99.90;;;;;;7735619;28;20056;-75
2020/12/10 09:44:23;;;;;;;3.93;1.43;;;11.60;99.90;;;;;;7733853;28;20220;-75
2020/12/10 09:48:05;;;;;;;3.70;1.37;;;11.50;99.90;;;;;;7722983;28;20086;-76
2020/12/10 09:51:49;;;;;;;1.87;1.03;;;11.50;99.90;;;;;;7733888;28;20417;-76
2020/12/10 09:59:34;;;;;;;3.80;1.77;;;11.40;99.90;;;;;;7735309;28;20083;-74
2020/12/10 10:03:17;;;;;;;3.67;1.63;;;11.40;99.90;;;;;;7735237;28;20120;-76
2020/12/10 10:07:10;;;;;;;3.67;1.40;;;11.40;99.90;;;;;;7733106;28;20063;-76
2020/12/10 10:10:52;;;;;;;4.70;2.10;;;11.30;99.90;;;;;;7732552;28;20087;-78
2020/12/10 10:14:34;;;;;;;3.73;1.77;;;11.30;99.90;;;;;;7734431;28;20056;-76
2020/12/10 10:18:16;;;;;;;3.60;1.53;;;11.30;99.90;;;;;;7732885;28;20378;-75
2020/12/10 10:21:58;;;;;;;3.80;1.27;;;11.30;99.90;;;;;;7733317;28;20059;-77
2020/12/10 10:25:39;;;;;;;3.50;1.60;;;11.30;99.90;;;;;;7734055;28;20060;-75
2020/12/10 10:29:21;;;;;;;2.07;1.20;;;11.40;99.90;;;;;;7733498;28;20087;-76
2020/12/10 10:33:04;;;;;;;4.37;1.60;;;11.50;99.90;;;;;;7733851;28;20112;-77
2020/12/10 10:36:47;;;;;;;4.53;1.57;;;11.60;99.90;;;;;;7718529;28;20420;-77
2020/12/10 10:40:31;;;;;;;4.20;1.50;;;11.70;99.90;;;;;;7705466;28;20052;-76
2020/12/10 10:44:14;;;;;;;5.53;2.07;;;11.80;99.90;;;;;;7732481;28;20060;-78
2020/12/10 10:47:55;;;;;;;2.87;1.77;;;11.80;99.90;;;;;;7712580;28;20139;-78
2020/12/10 10:51:37;;;;;;;4.17;1.97;;;11.90;99.90;;;;;;7732375;28;20055;-77
2020/12/10 10:55:18;;;;;;;3.23;1.60;;;11.90;99.90;;;;;;7731797;28;20138;-75
2020/12/10 10:59:00;;;;;;;3.47;1.40;;;11.90;99.90;;;;;;7731749;28;20135;-76
2020/12/10 11:02:41;;;;;;;3.10;1.50;;;12.00;99.90;;;;;;7733444;28;20059;-77
2020/12/10 11:06:23;;;;;;;5.73;1.67;;;11.90;99.90;;;;;;7731966;28;20137;-76
2020/12/10 11:10:11;;;;;;;2.25;1.27;;;11.90;99.90;;;;;;7732491;28;20060;-77
2020/12/10 11:13:53;;;;;;;6.50;1.83;;;12.00;99.90;;;;;;7731359;28;20573;-76
2020/12/10 11:17:34;;;;;;;3.53;1.80;;;12.00;99.90;;;;;;7731815;28;20056;-78
2020/12/10 11:21:15;;;;;;;3.53;1.70;;;12.10;99.90;;;;;;7732496;28;20095;-85
2020/12/10 11:24:57;;;;;;;1.83;0.90;;;12.20;99.90;;;;;;7727267;28;20087;-78
2020/12/10 11:28:38;;;;;;;1.47;0.87;;;12.30;99.90;;;;;;7731049;28;20102;-75
2020/12/10 11:32:20;;;;;;;1.77;0.80;;;12.50;99.90;;;;;;7731984;28;20135;-77
2020/12/10 11:36:04;;;;;;;1.53;0.97;;;12.60;99.90;;;;;;7731368;28;20052;-76
2020/12/10 11:39:46;;;;;;;3.73;1.10;;;12.70;99.90;;;;;;7730856;28;20406;-75
2020/12/10 11:43:27;;;;;;;2.70;1.47;;;12.80;99.90;;;;;;7731102;28;20468;-75
2020/12/10 11:47:10;;;;;;;3.33;1.23;;;12.90;99.90;;;;;;7720330;28;20139;-75
2020/12/10 11:50:52;;;;;;;1.47;0.60;;;12.90;99.90;;;;;;7731332;28;20080;-76
2020/12/10 11:54:34;;;;;;;1.20;0.70;;;12.90;99.90;;;;;;7731140;28;20095;-76
2020/12/10 11:58:15;;;;;;;1.90;1.00;;;12.90;99.90;;;;;;7731949;28;20095;-77
2020/12/10 12:01:57;;;;;;;1.57;1.10;;;12.90;99.90;;;;;;7730893;28;20479;-75
2020/12/10 12:05:39;;;;;;;2.67;1.13;;;12.80;99.90;;;;;;7734514;28;20067;-75
2020/12/10 12:09:20;;;;;;;1.83;1.00;;;12.80;99.90;;;;;;7733066;28;20135;-77
2020/12/10 12:13:02;;;;;;;1.40;0.90;;;12.80;99.90;;;;;;7736949;28;20052;-81
2020/12/10 12:16:47;;;;;;;1.17;0.77;;;12.80;99.90;;;;;;7737857;28;20127;-87
2020/12/10 12:20:29;;;;;;;1.80;0.97;;;12.80;99.90;;;;;;7733751;28;20056;-89
2020/12/10 12:24:10;;;;;;;1.73;0.70;;;12.80;99.90;;;;;;7737730;28;20147;-87
2020/12/10 12:27:52;;;;;;;2.10;0.80;;;12.80;99.90;;;;;;7737931;28;20106;-83
2020/12/10 12:31:35;;;;;;;1.07;0.80;;;12.80;99.90;;;;;;7737822;28;20070;-86
2020/12/10 12:35:20;;;;;;;1.63;0.98;;;12.90;99.90;;;;;;7737415;28;20068;-86
2020/12/10 12:39:03;;;;;;;0.80;0.80;;;12.90;99.90;;;;;;7722966;28;20349;-82
2020/12/10 12:42:45;;;;;;;3.60;0.90;;;13.00;99.90;;;;;;7704359;28;20057;-88
2020/12/10 12:46:27;;;;;;;1.53;0.80;;;13.00;99.90;;;;;;7710996;28;20091;-88
2020/12/10 12:50:09;;;;;;;1.40;0.67;;;13.00;99.90;;;;;;7736002;28;20060;-84
2020/12/10 12:53:52;;;;;;;1.47;0.70;;;13.00;99.90;;;;;;7737686;28;20479;-84
2020/12/10 12:57:34;;;;;;;2.73;1.20;;;13.00;99.90;;;;;;7737093;28;20066;-82
2020/12/10 13:01:17;;;;;;;1.80;0.90;;;13.00;99.90;;;;;;7737458;28;20084;-88
2020/12/10 13:04:58;;;;;;;1.60;0.90;;;13.00;99.90;;;;;;7737172;28;20060;-86
2020/12/10 13:08:41;;;;;;;1.83;0.83;;;13.00;99.90;;;;;;7737184;28;20059;-79
2020/12/10 13:12:22;;;;;;;1.50;0.90;;;13.00;99.90;;;;;;7737242;28;20821;-85
2020/12/10 13:16:05;;;;;;;1.10;0.70;;;13.00;99.90;;;;;;7735600;28;20060;-87
2020/12/10 13:19:48;;;;;;;1.20;0.80;;;13.00;99.90;;;;;;7736606;28;20445;-84
2020/12/10 13:23:29;;;;;;;0.97;0.80;;;13.00;99.90;;;;;;7736496;28;20063;-78
2020/12/10 13:27:11;;;;;;;1.30;0.70;;;13.00;99.90;;;;;;7730980;28;20159;-86
2020/12/10 13:30:52;;;;;;;1.07;0.83;;;13.00;99.90;;;;;;7736748;28;20299;-85
2020/12/10 13:34:34;;;;;;;0.90;0.67;;;13.00;99.90;;;;;;7734624;28;20093;-81
2020/12/10 13:38:15;;;;;;;2.20;0.90;;;13.10;99.90;;;;;;7735636;28;20063;-83
2020/12/10 13:41:57;;;;;;;0.93;0.60;;;13.20;99.90;;;;;;7736408;28;20124;-81
2020/12/10 13:45:39;;;;;;;2.03;0.80;;;13.20;99.90;;;;;;7731593;28;20144;-84
2020/12/10 13:49:20;;;;;;;1.17;0.70;;;13.30;99.90;;;;;;7745554;28;20440;-86
2020/12/10 13:53:02;;;;;;;1.23;0.70;;;13.40;99.90;;;;;;7735931;28;20060;-84
2020/12/10 13:56:44;;;;;;;1.60;0.70;;;13.40;99.90;;;;;;7720714;28;20052;-83
2020/12/10 14:00:25;;;;;;;0.93;0.77;;;13.40;99.90;;;;;;7704593;28;20143;-82
2020/12/10 14:04:07;;;;;;;2.13;0.90;;;13.50;99.90;;;;;;7716764;28;20094;-80
2020/12/10 14:07:48;;;;;;;1.77;0.60;;;13.40;99.90;;;;;;7735323;28;20064;-79
2020/12/10 14:11:30;;;;;;;2.33;0.97;;;13.50;99.90;;;;;;7736120;28;20173;-87
2020/12/10 14:15:11;;;;;;;2.50;1.00;;;13.50;99.90;;;;;;7733612;28;20595;-84
2020/12/10 14:18:53;;;;;;;3.93;1.60;;;13.60;99.90;;;;;;7733364;28;20167;-75
2020/12/10 14:22:34;;;;;;;2.43;1.40;;;13.60;99.90;;;;;;7735151;28;20068;-80
2020/12/10 14:26:17;;;;;;;2.20;0.90;;;13.60;99.80;;;;;;7734314;28;20060;-75
2020/12/10 14:29:59;;;;;;;3.40;1.00;;;13.60;99.70;;;;;;7732225;28;20139;-77
2020/12/10 14:33:41;;;;;;;0.60;0.60;;;13.50;99.50;;;;;;7734329;28;20519;-75
2020/12/10 14:37:24;;;;;;;2.17;0.70;;;13.50;99.50;;;;;;7733214;28;20640;-75
2020/12/10 14:41:06;;;;;;;1.53;0.60;;;13.40;99.60;;;;;;7733012;28;20056;-76
2020/12/10 14:44:48;;;;;;;0.87;0.63;;;13.40;99.60;;;;;;7727227;28;20072;-75
2020/12/10 14:48:29;;;;;;;0.97;0.60;;;13.30;99.50;;;;;;7738801;28;20063;-77
2020/12/10 14:52:11;;;;;;;2.57;1.10;;;13.30;99.50;;;;;;7732461;28;20106;-86
2020/12/10 14:55:52;;;;;;;1.93;1.07;;;13.20;99.40;;;;;;7732504;28;20412;-76
2020/12/10 14:59:34;;;;;;;1.30;0.70;;;13.20;99.30;;;;;;7730854;28;20060;-79
2020/12/10 15:03:15;;;;;;;1.27;0.80;;;13.20;99.20;;;;;;7726504;28;20131;-74
2020/12/10 15:06:57;;;;;;;0.90;0.70;;;13.10;99.10;;;;;;7728144;28;20052;-75
2020/12/10 15:10:41;;;;;;;0.90;0.60;;;13.10;99.10;;;;;;7730354;28;20064;-76
2020/12/10 15:14:22;;;;;;;1.30;0.77;;;13.10;99.10;;;;;;7730082;28;20106;-74
2020/12/10 15:18:04;;;;;;;1.37;0.90;;;13.00;99.20;;;;;;7730619;28;20382;-76
2020/12/10 15:21:46;;;;;;;0.77;0.60;;;12.90;99.20;;;;;;7731844;28;20052;-76
2020/12/10 15:25:27;;;;;;;1.40;0.73;;;12.90;99.30;;;;;;7732887;28;20134;-75
2020/12/10 15:29:09;;;;;;;1.00;0.70;;;12.80;99.30;;;;;;7731916;28;20490;-77
2020/12/10 15:32:50;;;;;;;1.33;0.70;;;12.80;99.40;;;;;;7733078;28;20056;-76
2020/12/10 15:36:32;;;;;;;1.90;0.90;;;12.70;99.40;;;;;;7732441;28;20048;-77
2020/12/10 15:40:14;;;;;;;1.03;0.70;;;12.70;99.40;;;;;;7732311;28;20056;-79
2020/12/10 15:43:55;;;;;;;0.80;0.60;;;12.60;99.40;;;;;;7732404;28;20138;-77
2020/12/10 15:47:37;;;;;;;2.50;1.33;;;12.60;99.40;;;;;;7732102;28;20134;-77
2020/12/10 15:51:18;;;;;;;1.13;0.90;;;12.60;99.40;;;;;;7733522;28;20064;-77
2020/12/10 15:54:59;;;;;;;2.00;0.87;;;12.50;99.40;;;;;;7732487;28;20131;-77
2020/12/10 15:58:47;;;;;;;0.97;0.80;;;12.50;99.40;;;;;;7732363;28;20094;-78
2020/12/10 16:02:28;;;;;;;1.30;0.83;;;12.40;99.40;;;;;;7730916;28;20079;-79
2020/12/10 16:06:10;;;;;;;1.20;0.80;;;12.40;99.40;;;;;;7728602;28;20147;-79
2020/12/10 16:09:51;;;;;;;1.73;0.83;;;12.40;99.50;;;;;;7724910;28;20055;-79
2020/12/10 16:13:32;;;;;;;4.50;1.27;;;12.30;99.40;;;;;;7730869;28;20083;-77
2020/12/10 16:17:14;;;;;;;1.90;1.10;;;12.30;99.50;;;;;;7730318;28;20088;-76
2020/12/10 16:20:56;;;;;;;1.53;1.00;;;12.30;99.40;;;;;;7724906;28;20053;-76
2020/12/10 16:24:37;;;;;;;1.40;0.70;;;12.20;99.50;;;;;;7736482;28;20151;-76
2020/12/10 16:28:22;;;;;;;2.00;0.90;;;12.20;99.50;;;;;;7734999;28;20064;-76
2020/12/10 16:32:04;;;;;;;1.43;1.00;;;12.20;99.60;;;;;;7760359;28;20090;-76
2020/12/10 16:35:45;;;;;;;1.17;0.80;;;12.10;99.50;;;;;;7724874;28;20095;-79
